SUAA    
 051600Z 13003KT 9999 SCT013 14/10 Q1018    
 SUCA    
 051623Z 12006KT 9999 SCT008 BKN016 11/09 Q1018   
 SUDU    
 051600Z 10008KT 9999 FEW010 BKN016 14/11 Q1017   
 SULS    
 051600Z 20008KT 9999 FEW007 SCT023 14/11 Q1018   
 SUMU    
 051600Z 12004KT 9999 BKN010 12/10 Q1018 NOSIG   
 SUSO    
 051600Z 16008KT 9999 OVC008 14/12 Q1016    
 SABE    
 051600Z 07008KT 9999 BKN011 12/09 Q1018 NOSIG RMK PP000 
 SACO    
 051600Z 07007KT 020V110 CAVOK 16/01 Q1017 NOSIG RMK PP000 
 SADF    
 051600Z 05008KT 9999 BKN015 13/09 Q1018 RMK PP000  
 SAEZ    
 051600Z 06008KT CAVOK 15/07 Q1018 NOSIG RMK PP000  
 SAWG    
 051600Z 25004KT 9999 FEW020 SCT100 M03/M04 Q0992   
 SAZB    
 051522Z 31017G27KT CAVOK 11/M04 Q1015     
 SAZM    
 020100Z 27003KT CAVOK 02/00 Q1017     
 SBPA    
 051600Z 08008KT 9999 FEW008 SCT100 21/18 Q1015   
 SGAS    
 051600Z 3610KT CAVOK 28/18 Q1015     
 SGES    
 051600Z 02014KT CAVOK 28/16 Q1016     
 SCCI    
 051600Z 30004KT 0650 R25/0900D FZFG BKN003 M02/M02 Q0993 NOSIG 
 SCRM    
 051600Z 04020KT 4000 -DZ BR OVC007 00/M01 Q0989 NOSIG